createdAt,value
2018-06-24T07:49:38.310Z,49.66
2018-06-24T07:50:42.662Z,49.74
2018-06-24T07:51:47.467Z,49.55
2018-06-24T08:32:46.794Z,49.39
2018-06-24T08:33:50.749Z,47.78
2018-06-24T08:34:54.556Z,48.84
2018-06-24T08:35:58.397Z,48.91
2018-06-24T08:37:02.191Z,47.78
2018-06-24T08:38:07.177Z,48.14
2018-06-24T08:39:13.058Z,48.36
2018-06-24T08:40:17.262Z,48.03
2018-06-24T08:41:30.616Z,47.29
2018-06-24T08:42:36.129Z,47.72
2018-06-24T08:43:39.860Z,47.94
2018-06-24T08:44:47.004Z,47.42
2018-06-24T08:45:51.606Z,47.25
2018-06-24T08:46:57.846Z,47.67
2018-06-24T08:48:05.596Z,47.09
2018-06-24T08:49:09.764Z,47.96
2018-06-24T08:50:15.549Z,47.53
2018-06-24T08:51:19.601Z,46.80
2018-06-24T08:52:23.376Z,47.04
2018-06-24T08:53:29.703Z,46.74
2018-06-24T08:54:34.072Z,47.04
2018-06-24T08:55:37.848Z,46.72
2018-06-24T08:56:41.965Z,47.04
2018-06-24T08:57:46.061Z,47.53
2018-06-24T08:58:49.831Z,47.25
2018-06-24T08:59:57.585Z,46.18
2018-06-24T09:01:01.383Z,46.82
2018-06-24T09:02:06.150Z,45.85
2018-06-24T09:03:09.904Z,46.53
2018-06-24T09:04:16.364Z,46.50
2018-06-24T09:05:21.324Z,45.70
2018-06-24T09:06:25.115Z,45.76
2018-06-24T09:07:28.895Z,45.83
2018-06-24T09:08:33.437Z,46.46
2018-06-24T09:09:37.208Z,45.83
2018-06-24T09:10:42.279Z,45.77
2018-06-24T09:11:46.742Z,46.24
2018-06-24T09:12:50.583Z,46.20
2018-06-24T09:13:55.795Z,46.18
2018-06-24T09:15:00.485Z,45.69
2018-06-24T09:16:08.944Z,46.39
2018-06-24T09:17:15.130Z,45.86
2018-06-24T09:18:19.111Z,46.19
2018-06-24T09:19:24.281Z,45.56
2018-06-24T09:20:29.675Z,45.52
2018-06-24T09:21:38.134Z,46.02
2018-06-24T09:22:42.005Z,45.47
2018-06-24T09:23:46.602Z,45.67
2018-06-24T09:24:50.913Z,46.41
2018-06-24T09:25:55.339Z,46.38
2018-06-24T09:26:59.195Z,45.50
2018-06-24T09:28:03.072Z,45.51
2018-06-24T09:29:06.906Z,46.37
2018-06-24T09:30:14.069Z,46.36
2018-06-24T09:31:18.660Z,45.98
2018-06-24T09:32:24.640Z,45.89
2018-06-24T09:33:28.692Z,45.49
2018-06-24T09:34:33.527Z,45.79
2018-06-24T09:35:40.099Z,46.13
2018-06-24T09:36:44.302Z,45.49
2018-06-24T09:37:48.157Z,45.39
2018-06-24T09:38:54.259Z,45.67
2018-06-24T09:39:58.952Z,45.69
2018-06-24T09:41:04.977Z,45.64
2018-06-24T09:42:08.782Z,45.88
2018-06-24T09:43:15.826Z,45.42
2018-06-24T09:45:52.614Z,45.41
2018-06-24T09:46:57.541Z,46.06
2018-06-24T09:48:04.323Z,45.38
2018-06-24T09:49:08.334Z,45.42
2018-06-24T09:50:13.162Z,45.41
2018-06-24T09:51:20.291Z,45.45
2018-06-24T12:46:24.161Z,48.06
2018-06-24T12:47:30.939Z,47.91
2018-06-24T12:48:37.530Z,46.78
2018-06-24T12:49:47.428Z,47.61
2018-06-24T12:50:52.099Z,47.39
2018-06-24T12:51:57.288Z,46.64
2018-06-24T12:53:01.697Z,46.26
2018-06-24T12:54:06.749Z,47.06
2018-06-24T12:55:14.637Z,46.53
2018-06-24T12:56:18.733Z,46.41
2018-06-24T12:59:53.641Z,45.89
2018-06-24T13:00:58.842Z,45.84
2018-06-24T13:02:05.224Z,45.75
2018-06-24T13:03:10.432Z,46.65
2018-06-24T13:04:16.238Z,46.04
2018-06-24T13:05:25.416Z,45.69
2018-06-24T13:06:30.667Z,46.31
2018-06-24T13:07:35.100Z,46.51
2018-06-24T13:08:41.312Z,46.22
2018-06-24T13:09:46.273Z,46.13
2018-06-24T13:10:52.180Z,46.28
2018-06-24T13:11:58.552Z,46.36
2018-06-24T13:13:02.481Z,46.26
2018-06-24T13:14:08.459Z,45.38
2018-06-24T13:15:14.313Z,45.66
2018-06-24T13:16:19.346Z,45.48
2018-06-24T13:17:25.119Z,46.54
2018-06-24T13:18:30.669Z,45.26
2018-06-24T13:19:34.711Z,46.09
2018-06-24T13:20:39.499Z,46.15
2018-06-24T13:21:44.470Z,45.74
2018-06-24T13:22:50.326Z,45.38
2018-06-24T13:23:54.614Z,45.97
2018-06-24T13:24:59.233Z,45.12
2018-06-24T13:26:04.630Z,46.14
2018-06-24T13:27:10.249Z,45.30
2018-06-24T13:28:14.015Z,45.54
2018-06-24T13:29:21.486Z,45.21
2018-06-24T13:30:25.701Z,45.53
2018-06-24T13:31:29.526Z,45.88
2018-06-24T13:32:33.483Z,46.08
2018-06-24T13:33:37.265Z,45.16
2018-06-24T13:34:41.898Z,46.00
2018-06-24T13:35:46.509Z,45.15
2018-06-24T13:36:51.829Z,45.31
2018-06-24T13:37:56.082Z,45.72
2018-06-24T13:39:00.173Z,45.40
2018-06-24T13:40:04.636Z,45.01
2018-06-24T13:41:09.441Z,45.07
2018-06-24T13:42:14.596Z,45.25
2018-06-24T13:43:19.757Z,45.02
2018-06-24T13:44:24.042Z,45.00
2018-06-24T13:45:34.682Z,45.69
2018-06-24T13:46:38.703Z,45.67
2018-06-24T13:47:42.531Z,45.29
2018-06-24T13:48:46.969Z,45.37
2018-06-24T13:49:51.276Z,44.95
2018-06-24T13:50:56.224Z,45.24
2018-06-24T13:52:03.831Z,45.01
2018-06-24T13:53:09.698Z,45.43
2018-06-24T13:54:14.030Z,44.94
2018-06-24T13:55:19.702Z,45.08
2018-06-24T13:56:24.324Z,45.56
2018-06-24T13:57:29.607Z,44.93
2018-06-24T13:58:34.504Z,45.07
2018-06-24T13:59:38.374Z,44.82
2018-06-24T14:00:49.212Z,45.58
2018-06-24T14:01:53.063Z,44.67
2018-06-24T14:02:58.205Z,45.12
2018-06-24T14:04:06.418Z,45.16
2018-06-24T14:05:10.543Z,45.72
2018-06-24T14:06:14.542Z,45.80
2018-06-24T14:07:18.377Z,44.91
2018-06-24T14:08:23.295Z,45.67
2018-06-24T14:09:28.554Z,44.79
2018-06-24T14:10:33.907Z,44.86
2018-06-24T14:11:40.803Z,45.73
2018-06-24T14:12:47.245Z,45.41
2018-06-24T14:13:52.538Z,45.35
2018-06-24T14:14:57.884Z,45.62
2018-06-24T14:16:06.559Z,45.57
2018-06-24T14:17:12.245Z,44.93
2018-06-24T14:18:16.858Z,44.88
2018-06-24T14:19:22.466Z,45.15
2018-06-24T14:20:26.360Z,45.49
2018-06-24T14:21:33.865Z,45.44
2018-06-24T14:22:38.293Z,44.90
2018-06-24T14:23:42.945Z,45.88
2018-06-24T14:24:47.489Z,44.97
2018-06-24T14:25:53.350Z,45.38
2018-06-24T14:26:57.619Z,44.88
2018-06-24T14:28:01.470Z,45.80
2018-06-24T14:29:06.396Z,45.38
2018-06-24T14:30:10.190Z,45.20
2018-06-24T14:31:15.895Z,44.87
2018-06-24T14:32:20.311Z,44.92
2018-06-24T14:33:24.107Z,45.12
2018-06-24T14:34:27.955Z,44.82
2018-06-24T14:35:33.340Z,45.35
2018-06-24T14:36:38.208Z,44.86
2018-06-24T14:37:46.958Z,45.72
2018-06-24T14:38:52.484Z,44.86
2018-06-24T14:39:57.106Z,45.04
2018-06-24T14:41:01.547Z,45.88
2018-06-24T14:42:06.127Z,45.79
2018-06-24T14:43:10.865Z,45.84
2018-06-24T14:44:14.766Z,45.22
2018-06-24T14:45:19.796Z,45.84
2018-06-24T14:46:23.633Z,45.14
2018-06-24T14:47:27.579Z,45.82
2018-06-24T14:48:31.444Z,44.92
2018-06-24T14:49:35.274Z,45.39
2018-06-24T14:50:42.056Z,45.72
2018-06-24T14:51:46.210Z,45.54
2018-06-24T14:52:50.724Z,44.93
2018-06-24T14:54:00.211Z,45.65
2018-06-24T14:55:05.222Z,45.52
2018-06-24T14:56:11.321Z,45.15
2018-06-24T14:57:17.751Z,44.90
2018-06-24T14:58:22.356Z,44.87
2018-06-24T14:59:26.220Z,44.88
2018-06-24T15:00:30.409Z,45.01
2018-06-24T15:01:34.343Z,45.31
2018-06-24T15:02:42.639Z,45.62
2018-06-24T15:03:46.446Z,45.70
2018-06-24T15:04:50.664Z,45.23
2018-06-24T15:05:55.351Z,45.88
2018-06-24T15:07:00.392Z,44.97
2018-06-24T15:08:04.222Z,45.87
2018-06-24T15:09:08.579Z,45.88
2018-06-24T15:10:12.398Z,45.88
2018-06-24T15:11:16.936Z,45.85
2018-06-24T15:12:20.734Z,45.24
2018-06-24T15:13:25.303Z,45.89
2018-06-24T15:14:31.269Z,45.90
2018-06-24T15:15:35.106Z,45.69
2018-06-24T15:16:39.647Z,45.80
2018-06-24T15:17:43.935Z,45.48
2018-06-24T15:18:47.767Z,45.94
2018-06-24T15:19:52.357Z,45.60
2018-06-24T15:20:59.186Z,45.62
2018-06-24T15:22:04.668Z,45.91
2018-06-24T15:23:08.691Z,45.05
2018-06-24T15:24:13.234Z,45.68
2018-06-24T15:25:19.647Z,46.00
2018-06-24T15:26:23.755Z,45.95
2018-06-24T15:27:27.849Z,45.79
2018-06-24T15:28:33.883Z,44.99
2018-06-24T15:29:38.624Z,46.00
2018-06-24T15:30:42.816Z,45.80
2018-06-24T15:31:46.663Z,45.71
2018-06-24T15:32:50.731Z,45.24
2018-06-24T15:33:56.279Z,45.19
2018-06-24T15:35:01.218Z,45.69
2018-06-24T15:36:05.727Z,45.61
2018-06-24T15:37:10.424Z,45.07
2018-06-24T15:38:14.916Z,45.92
2018-06-24T15:39:19.377Z,45.59
2018-06-24T15:40:25.220Z,45.86
2018-06-24T15:41:31.643Z,45.94
2018-06-24T15:42:36.035Z,44.97
2018-06-24T15:43:41.238Z,45.02
2018-06-24T15:44:45.190Z,45.59
2018-06-24T15:45:50.024Z,45.69
2018-06-24T15:46:53.889Z,45.67
2018-06-24T15:47:58.664Z,45.29
2018-06-24T15:49:04.946Z,45.90
2018-06-24T15:50:09.708Z,45.25
2018-06-24T15:51:14.366Z,45.93
2018-06-24T15:52:19.234Z,44.91
2018-06-24T15:53:26.692Z,45.34
2018-06-24T15:54:31.530Z,45.87
2018-06-24T15:55:36.182Z,45.15
2018-06-24T15:56:41.432Z,45.84
2018-06-24T15:57:46.294Z,45.29
2018-06-24T15:58:50.141Z,45.22
2018-06-24T15:59:54.933Z,45.24
2018-06-24T16:00:58.705Z,45.98
2018-06-24T16:02:05.332Z,45.99
2018-06-24T16:03:13.320Z,45.15
2018-06-24T16:04:20.739Z,46.00
2018-06-24T16:05:25.209Z,45.65
2018-06-24T16:06:30.029Z,45.97
2018-06-24T16:07:34.398Z,46.05
2018-06-24T16:08:38.238Z,45.98
2018-06-24T16:09:43.246Z,45.07
2018-06-24T16:10:48.264Z,45.38
2018-06-24T16:11:56.056Z,45.34
2018-06-24T16:13:00.608Z,45.10
2018-06-24T16:14:05.707Z,45.91
2018-06-24T16:15:11.318Z,45.66
2018-06-24T16:16:15.193Z,45.07
2018-06-24T16:17:20.345Z,46.05
2018-06-24T16:18:25.262Z,45.71
2018-06-24T16:19:36.451Z,45.96
2018-06-24T16:20:41.293Z,45.74
2018-06-24T16:21:52.688Z,45.57
2018-06-24T16:22:56.706Z,45.06
2018-06-24T16:24:03.506Z,45.35
2018-06-24T16:25:08.542Z,45.80
2018-06-24T16:26:15.327Z,45.72
2018-06-24T16:27:21.329Z,46.01
2018-06-24T16:28:26.737Z,45.96
2018-06-24T16:29:31.207Z,46.11
2018-06-24T16:30:38.653Z,45.71
2018-06-24T16:31:43.778Z,45.16
2018-06-24T16:32:50.674Z,45.77
2018-06-24T16:33:55.614Z,46.02
2018-06-24T16:35:00.272Z,45.20
2018-06-24T16:36:07.059Z,45.13
2018-06-24T16:37:12.479Z,45.45
2018-06-24T16:38:17.404Z,46.01
2018-06-24T16:39:21.573Z,44.96
2018-06-24T16:40:25.809Z,45.89
2018-06-24T16:41:34.465Z,45.17
2018-06-24T16:42:40.044Z,45.95
2018-06-24T16:43:43.875Z,46.08
2018-06-24T16:44:48.440Z,46.00
2018-06-24T16:45:54.232Z,45.43
2018-06-24T16:46:59.565Z,45.96
2018-06-24T16:48:03.639Z,45.85
2018-06-24T16:49:10.026Z,46.10
2018-06-24T16:50:15.591Z,45.76
2018-06-24T16:51:20.263Z,45.85
2018-06-24T16:52:25.153Z,46.24
2018-06-24T16:53:29.761Z,45.51
2018-06-24T16:54:34.492Z,46.22
2018-06-24T16:55:38.286Z,46.17
2018-06-24T16:56:43.762Z,45.98
2018-06-24T16:57:47.545Z,45.38
2018-06-24T16:58:52.661Z,45.59
2018-06-24T16:59:57.476Z,45.34
2018-06-24T17:01:01.284Z,46.28
2018-06-24T17:02:08.078Z,45.71
2018-06-24T17:03:12.923Z,45.35
2018-06-24T17:04:16.734Z,45.43
2018-06-24T17:05:20.895Z,46.12
2018-06-24T17:06:24.765Z,46.21
2018-06-24T17:07:30.997Z,46.37
2018-06-24T17:08:35.763Z,46.18
2018-06-24T17:09:40.088Z,45.61
2018-06-24T17:10:43.993Z,45.44
2018-06-24T17:11:49.330Z,45.57
2018-06-24T17:12:53.141Z,45.74
2018-06-24T17:13:57.540Z,45.51
2018-06-24T17:15:04.238Z,46.46
2018-06-24T17:16:10.644Z,46.41
2018-06-24T17:17:15.617Z,46.14
2018-06-24T17:18:20.434Z,45.75
2018-06-24T17:19:24.845Z,46.35
2018-06-24T17:20:28.783Z,46.25
2018-06-24T17:21:33.229Z,46.73
2018-06-24T17:22:38.291Z,45.94
2018-06-24T17:23:43.654Z,46.07
2018-06-24T17:24:50.441Z,45.90
2018-06-24T17:25:54.248Z,45.63
2018-06-24T17:26:58.722Z,45.89
2018-06-24T17:28:03.242Z,46.35
2018-06-24T17:29:07.050Z,45.58
2018-06-24T17:30:11.653Z,46.26
2018-06-24T17:31:16.721Z,46.28
2018-06-24T17:32:24.035Z,46.40
2018-06-24T17:33:31.487Z,46.42
2018-06-24T17:34:36.351Z,46.52
2018-06-24T17:35:42.979Z,45.90
2018-06-24T17:36:47.709Z,46.11
2018-06-24T17:37:55.425Z,46.06
2018-06-24T17:39:01.584Z,46.33
2018-06-24T17:40:09.020Z,45.71
2018-06-24T17:41:12.980Z,45.82
2018-06-24T17:42:20.507Z,46.37
2018-06-24T17:43:25.881Z,45.70
2018-06-24T17:44:30.318Z,46.42
2018-06-24T17:45:35.040Z,45.74
2018-06-24T17:46:38.861Z,46.28
2018-06-24T17:47:43.531Z,46.04
2018-06-24T17:49:01.513Z,46.34
2018-06-24T17:50:05.331Z,45.78
2018-06-24T17:51:10.378Z,46.65
2018-06-24T17:52:15.522Z,46.04
2018-06-24T17:53:21.235Z,46.04
2018-06-24T17:54:56.282Z,45.85
2018-06-24T17:56:01.653Z,46.78
2018-06-24T17:57:06.039Z,46.61
2018-06-24T17:58:10.088Z,46.03
2018-06-24T17:59:16.501Z,46.77
2018-06-24T18:00:20.954Z,46.74
2018-06-24T18:01:25.990Z,46.02
2018-06-24T18:02:29.835Z,46.18
2018-06-24T18:03:34.216Z,46.79
2018-06-24T18:04:38.292Z,45.93
2018-06-24T18:05:42.072Z,46.48
2018-06-24T18:06:45.859Z,46.81
2018-06-24T18:07:49.647Z,46.59
2018-06-24T18:08:53.451Z,46.47
2018-06-24T18:09:57.222Z,45.91
2018-06-24T18:11:01.338Z,45.94
2018-06-24T18:12:06.838Z,45.98
2018-06-24T18:13:11.704Z,46.02
2018-06-24T18:14:16.098Z,46.59
2018-06-24T18:15:20.095Z,46.13
2018-06-24T18:16:23.990Z,46.89
2018-06-24T18:17:29.002Z,45.98
2018-06-24T18:18:34.468Z,46.22
2018-06-24T18:19:38.409Z,46.86
2018-06-24T18:20:43.270Z,46.64
2018-06-24T18:21:47.098Z,46.40
2018-06-24T18:22:51.775Z,46.68
2018-06-24T18:23:56.665Z,46.36
2018-06-24T18:25:01.577Z,46.05
2018-06-24T18:26:10.538Z,46.12
2018-06-24T18:27:14.998Z,46.56
2018-06-24T18:28:19.823Z,46.01
2018-06-24T18:29:28.735Z,46.01
2018-06-24T18:30:35.003Z,45.96
2018-06-24T18:31:38.790Z,46.83
2018-06-24T18:32:48.269Z,46.11
2018-06-24T18:33:47.309Z,46.58
2018-06-24T18:34:51.359Z,45.81
2018-06-24T18:35:55.376Z,46.59
2018-06-24T18:36:59.696Z,46.63
2018-06-24T18:38:15.441Z,46.57
2018-06-24T18:39:19.416Z,46.37
2018-06-24T18:40:23.334Z,46.47
2018-06-24T18:41:32.118Z,45.55
2018-06-24T18:42:41.749Z,45.63
2018-06-24T18:43:46.491Z,45.59
2018-06-24T18:44:50.299Z,46.20
2018-06-24T18:45:55.212Z,45.60
2018-06-24T18:47:00.721Z,45.54
2018-06-24T18:48:05.866Z,46.29
2018-06-24T18:49:11.594Z,46.49
2018-06-24T18:50:17.328Z,45.67
2018-06-24T18:51:21.415Z,45.41
2018-06-24T18:52:26.703Z,45.62
2018-06-24T18:53:31.409Z,45.92
2018-06-24T18:54:35.814Z,45.42
2018-06-24T18:55:40.574Z,46.15
2018-06-24T18:56:44.420Z,45.84
2018-06-24T18:57:49.211Z,45.84
2018-06-24T18:58:54.677Z,45.54
2018-06-24T19:00:00.618Z,45.84
2018-06-24T19:01:05.703Z,46.18
2018-06-24T19:02:09.824Z,46.09
2018-06-24T19:03:17.178Z,45.35
2018-06-24T19:04:22.523Z,45.60
2018-06-24T19:05:27.047Z,45.42
2018-06-24T19:06:33.422Z,45.25
2018-06-24T19:07:40.215Z,46.03
2018-06-24T19:08:46.211Z,45.26
2018-06-24T19:09:56.120Z,46.21
2018-06-24T19:11:02.271Z,45.49
2018-06-24T19:12:06.113Z,46.15
2018-06-24T19:13:10.412Z,45.84
2018-06-24T19:14:15.862Z,45.54
2018-06-24T19:15:20.657Z,45.35
2018-06-24T19:16:24.495Z,45.36
2018-06-24T19:17:31.240Z,46.26
2018-06-24T19:18:37.552Z,45.54
2018-06-24T19:19:42.246Z,45.97
2018-06-24T19:20:47.670Z,45.77
2018-06-24T19:21:52.470Z,45.44
2018-06-24T19:22:56.263Z,45.50
2018-06-24T19:24:01.608Z,45.73
2018-06-24T19:25:07.528Z,46.17
2018-06-24T19:26:11.486Z,45.54
2018-06-24T19:27:15.352Z,46.21
2018-06-24T19:28:20.327Z,45.35
2018-06-24T19:29:24.749Z,45.26
2018-06-24T19:30:29.335Z,45.57
2018-06-24T19:31:34.931Z,45.27
2018-06-24T19:32:39.537Z,45.32
2018-06-24T19:33:45.385Z,45.84
2018-06-24T19:34:52.375Z,46.15
2018-06-24T19:35:57.343Z,45.26
2018-06-24T19:37:03.943Z,45.90
2018-06-24T19:38:09.385Z,45.55
2018-06-24T19:39:14.129Z,45.23
2018-06-24T19:40:21.155Z,45.69
2018-06-24T19:41:29.444Z,46.17
2018-06-24T19:42:36.372Z,45.16
2018-06-24T19:43:41.262Z,45.45
2018-06-24T19:44:48.034Z,45.39
2018-06-24T19:45:54.790Z,45.27
2018-06-24T19:46:59.366Z,45.34
2018-06-24T19:48:06.717Z,45.78
2018-06-24T19:49:14.214Z,45.28
2018-06-24T19:50:20.225Z,45.68
2018-06-24T19:51:24.287Z,45.90
2018-06-24T19:52:28.646Z,45.44
2018-06-24T19:53:34.313Z,45.73
2018-06-24T19:54:38.646Z,45.28
2018-06-24T19:55:43.757Z,45.31
2018-06-24T19:56:49.195Z,45.63
2018-06-24T19:57:53.989Z,45.44
2018-06-24T19:58:59.153Z,45.64
2018-06-24T20:00:03.923Z,45.32
2018-06-24T20:01:08.636Z,45.35
2018-06-24T20:02:12.436Z,45.39
2018-06-24T20:03:17.067Z,45.85
2018-06-24T20:04:21.876Z,46.25
2018-06-24T20:05:27.186Z,45.74
2018-06-24T20:06:32.164Z,46.21
2018-06-24T20:07:36.245Z,46.13
2018-06-24T20:08:43.033Z,45.50
2018-06-24T20:09:47.382Z,46.08
2018-06-24T20:10:51.206Z,46.15
2018-06-24T20:11:57.339Z,45.82
2018-06-24T20:13:01.241Z,45.46
2018-06-24T20:14:07.375Z,45.51
2018-06-24T20:15:11.145Z,46.22
2018-06-24T20:16:15.940Z,45.81
2018-06-24T20:17:19.849Z,45.36
2018-06-24T20:18:23.609Z,46.42
2018-06-24T20:19:27.373Z,46.44
2018-06-24T20:20:32.356Z,45.49
2018-06-24T20:21:36.154Z,45.50
2018-06-24T20:22:40.605Z,45.77
2018-06-24T20:23:49.911Z,45.41
2018-06-24T20:24:57.577Z,46.34
2018-06-24T20:26:02.904Z,45.44
2018-06-24T20:27:08.339Z,46.49
2018-06-24T20:28:12.227Z,45.54
2018-06-24T20:29:17.107Z,45.56
2018-06-24T20:30:22.539Z,45.53
2018-06-24T20:31:26.957Z,45.79
2018-06-24T20:32:32.486Z,45.68
2018-06-24T20:33:39.933Z,46.07
2018-06-24T20:34:43.678Z,45.86
2018-06-24T20:35:50.110Z,46.53
2018-06-24T20:36:54.491Z,45.65
2018-06-24T20:37:59.411Z,45.83
2018-06-24T20:39:06.955Z,46.23
2018-06-24T20:40:11.592Z,46.56
2018-06-24T20:41:17.306Z,46.55
2018-06-24T20:42:24.606Z,46.64
2018-06-24T20:43:34.009Z,46.60
2018-06-24T20:44:39.420Z,46.41
2018-06-24T20:45:45.585Z,45.75
2018-06-24T20:46:50.217Z,46.41
2018-06-24T20:47:54.767Z,45.72
2018-06-24T20:49:00.704Z,46.64
2018-06-24T20:50:07.536Z,45.99
2018-06-24T20:51:12.208Z,46.10
2018-06-24T20:52:17.133Z,46.70
2018-06-24T20:53:22.520Z,46.68
2018-06-24T20:54:27.931Z,46.23
2018-06-24T20:55:32.262Z,45.84
2018-06-24T20:56:36.054Z,46.15
2018-06-24T20:57:40.611Z,46.73
2018-06-24T20:58:44.670Z,45.83
2018-06-24T20:59:48.724Z,46.07
2018-06-24T21:00:52.610Z,46.01
2018-06-24T21:01:56.670Z,45.89
2018-06-24T21:03:01.626Z,46.47
2018-06-24T21:04:05.665Z,46.34
2018-06-24T21:05:10.763Z,46.73
2018-06-24T21:06:17.064Z,46.37
2018-06-24T21:07:22.632Z,45.89
2018-06-24T21:08:29.196Z,46.68
2018-06-24T21:09:37.563Z,46.14
2018-06-24T21:10:41.904Z,46.85
2018-06-24T21:11:45.700Z,45.91
2018-06-24T21:12:53.893Z,46.81
2018-06-24T21:13:58.632Z,46.18
2018-06-24T21:15:03.251Z,46.83
2018-06-24T21:16:11.401Z,46.62
2018-06-24T21:17:18.233Z,46.01
2018-06-24T21:18:26.513Z,46.87
2018-06-24T21:19:32.084Z,46.81
2018-06-24T21:20:37.282Z,46.04
2018-06-24T21:21:45.301Z,46.26
2018-06-24T21:22:51.824Z,46.93
2018-06-24T21:23:56.829Z,46.78
2018-06-24T21:25:00.727Z,46.97
2018-06-24T21:26:06.536Z,46.02
2018-06-24T21:27:40.605Z,46.04
2018-06-24T21:28:46.420Z,46.34
2018-06-24T21:29:53.380Z,46.42
2018-06-24T21:30:57.225Z,46.94
2018-06-24T21:32:01.086Z,46.41
2018-06-24T21:33:06.687Z,45.97
2018-06-24T21:34:11.045Z,46.91
2018-06-24T21:35:16.651Z,46.26
2018-06-24T21:36:20.921Z,46.92
2018-06-24T21:37:24.729Z,46.06
2018-06-24T21:38:28.524Z,46.46
2018-06-24T21:39:32.426Z,46.58
2018-06-24T21:40:37.304Z,46.83
2018-06-24T21:41:41.506Z,47.04
2018-06-24T21:42:50.256Z,46.15
2018-06-24T21:43:54.024Z,47.06
2018-06-24T21:44:58.344Z,46.77
2018-06-24T21:46:02.818Z,47.29
2018-06-24T21:47:08.208Z,47.10
2018-06-24T21:48:12.286Z,47.07
2018-06-24T21:49:18.267Z,46.69
2018-06-24T21:50:25.697Z,47.06
2018-06-24T21:51:30.301Z,46.55
2018-06-24T21:52:37.695Z,46.91
2018-06-24T21:53:42.054Z,47.18
2018-06-24T21:54:48.429Z,47.05
2018-06-24T21:55:53.353Z,46.01
2018-06-24T21:56:59.788Z,47.17
2018-06-24T21:58:03.594Z,46.92
2018-06-24T21:59:12.265Z,47.01
2018-06-24T22:00:16.726Z,46.82
2018-06-24T22:01:21.802Z,46.28
2018-06-24T22:02:25.626Z,46.73
2018-06-24T22:03:29.465Z,46.17
2018-06-24T22:04:34.106Z,46.13
2018-06-24T22:05:40.839Z,46.31
2018-06-24T22:06:44.651Z,46.84
2018-06-24T22:07:49.766Z,46.27
2018-06-24T22:08:55.282Z,46.92
2018-06-24T22:10:00.728Z,45.50
2018-06-24T22:11:04.508Z,47.18
2018-06-24T22:12:08.568Z,46.96
2018-06-24T22:13:13.215Z,46.87
2018-06-24T22:14:17.606Z,46.80
2018-06-24T22:15:21.615Z,46.14
2018-06-24T22:16:25.407Z,46.43
2018-06-24T22:17:29.226Z,46.12
2018-06-24T22:18:34.857Z,46.43
2018-06-24T22:19:39.856Z,46.20
2018-06-24T22:20:44.236Z,46.79
